sensor_id;sensor_type;location;lat;lon;timestamp;temperature;humidity
9847;DHT22;68671;50.084;8.794;2023-11-21T00:01:03;13.00;99.90
9847;DHT22;68671;50.084;8.794;2023-11-21T00:03:31;13.00;99.90
9847;DHT22;68671;50.084;8.794;2023-11-21T00:05:58;13.10;99.90
9847;DHT22;68671;50.084;8.794;2023-11-21T00:08:26;13.00;99.90
9847;DHT22;68671;50.084;8.794;2023-11-21T00:10:52;13.10;99.90
9847;DHT22;68671;50.084;8.794;2023-11-21T00:13:20;13.10;99.90
9847;DHT22;68671;50.084;8.794;2023-11-21T00:15:47;13.10;99.90
9847;DHT22;68671;50.084;8.794;2023-11-21T00:18:15;13.10;99.90
9847;DHT22;68671;50.084;8.794;2023-11-21T00:20:43;13.20;99.90
9847;DHT22;68671;50.084;8.794;2023-11-21T00:23:10;13.20;99.90
9847;DHT22;68671;50.084;8.794;2023-11-21T00:25:37;13.20;99.90
9847;DHT22;68671;50.084;8.794;2023-11-21T00:28:04;13.20;99.90
9847;DHT22;68671;50.084;8.794;2023-11-21T00:30:31;13.20;99.90
9847;DHT22;68671;50.084;8.794;2023-11-21T00:32:58;13.30;99.90
9847;DHT22;68671;50.084;8.794;2023-11-21T00:35:25;13.30;99.90
9847;DHT22;68671;50.084;8.794;2023-11-21T00:37:53;13.30;99.90
9847;DHT22;68671;50.084;8.794;2023-11-21T00:40:20;13.30;99.90
9847;DHT22;68671;50.084;8.794;2023-11-21T00:42:47;13.30;99.90
9847;DHT22;68671;50.084;8.794;2023-11-21T00:45:14;13.40;99.90
9847;DHT22;68671;50.084;8.794;2023-11-21T00:47:42;13.30;99.90
9847;DHT22;68671;50.084;8.794;2023-11-21T00:50:11;13.30;99.90
9847;DHT22;68671;50.084;8.794;2023-11-21T00:52:38;13.40;99.90
9847;DHT22;68671;50.084;8.794;2023-11-21T00:55:07;13.40;99.90
9847;DHT22;68671;50.084;8.794;2023-11-21T00:57:36;13.30;99.90
9847;DHT22;68671;50.084;8.794;2023-11-21T01:00:03;13.30;99.90
9847;DHT22;68671;50.084;8.794;2023-11-21T01:02:37;13.30;99.90
9847;DHT22;68671;50.084;8.794;2023-11-21T01:05:05;13.30;99.90
9847;DHT22;68671;50.084;8.794;2023-11-21T01:07:33;13.30;99.90
9847;DHT22;68671;50.084;8.794;2023-11-21T01:10:02;13.30;99.90
9847;DHT22;68671;50.084;8.794;2023-11-21T01:12:33;13.30;99.90
9847;DHT22;68671;50.084;8.794;2023-11-21T01:15:00;13.30;99.90
9847;DHT22;68671;50.084;8.794;2023-11-21T01:17:27;13.30;99.90
9847;DHT22;68671;50.084;8.794;2023-11-21T01:19:54;13.40;99.90
9847;DHT22;68671;50.084;8.794;2023-11-21T01:22:23;13.40;99.90
9847;DHT22;68671;50.084;8.794;2023-11-21T01:24:51;13.40;99.90
9847;DHT22;68671;50.084;8.794;2023-11-21T01:27:18;13.40;99.90
9847;DHT22;68671;50.084;8.794;2023-11-21T01:29:47;13.40;99.90
9847;DHT22;68671;50.084;8.794;2023-11-21T01:32:13;13.50;99.90
9847;DHT22;68671;50.084;8.794;2023-11-21T01:34:40;13.50;99.90
9847;DHT22;68671;50.084;8.794;2023-11-21T01:37:07;13.50;99.90
9847;DHT22;68671;50.084;8.794;2023-11-21T01:39:37;13.50;99.90
9847;DHT22;68671;50.084;8.794;2023-11-21T01:42:05;13.50;99.90
9847;DHT22;68671;50.084;8.794;2023-11-21T01:44:33;13.60;99.90
9847;DHT22;68671;50.084;8.794;2023-11-21T01:47:01;13.50;99.90
9847;DHT22;68671;50.084;8.794;2023-11-21T01:49:31;13.60;99.90
9847;DHT22;68671;50.084;8.794;2023-11-21T01:51:59;13.60;99.90
9847;DHT22;68671;50.084;8.794;2023-11-21T01:54:26;13.60;99.90
9847;DHT22;68671;50.084;8.794;2023-11-21T01:56:57;13.60;99.90
9847;DHT22;68671;50.084;8.794;2023-11-21T01:59:31;13.60;99.90
9847;DHT22;68671;50.084;8.794;2023-11-21T02:02:02;13.60;99.90
9847;DHT22;68671;50.084;8.794;2023-11-21T02:04:31;13.60;99.90
9847;DHT22;68671;50.084;8.794;2023-11-21T02:06:58;13.60;99.90
9847;DHT22;68671;50.084;8.794;2023-11-21T02:09:26;13.50;99.90
9847;DHT22;68671;50.084;8.794;2023-11-21T02:11:53;13.60;99.90
9847;DHT22;68671;50.084;8.794;2023-11-21T02:14:20;13.60;99.90
9847;DHT22;68671;50.084;8.794;2023-11-21T02:16:48;13.60;99.90
9847;DHT22;68671;50.084;8.794;2023-11-21T02:19:19;13.60;99.90
9847;DHT22;68671;50.084;8.794;2023-11-21T02:21:49;13.60;99.90
9847;DHT22;68671;50.084;8.794;2023-11-21T02:24:19;13.60;99.90
9847;DHT22;68671;50.084;8.794;2023-11-21T02:26:47;13.60;99.90
9847;DHT22;68671;50.084;8.794;2023-11-21T02:29:14;13.60;99.90
9847;DHT22;68671;50.084;8.794;2023-11-21T02:31:44;13.60;99.90
9847;DHT22;68671;50.084;8.794;2023-11-21T02:34:14;13.60;99.90
9847;DHT22;68671;50.084;8.794;2023-11-21T02:36:41;13.60;99.90
9847;DHT22;68671;50.084;8.794;2023-11-21T02:39:09;13.60;99.90
9847;DHT22;68671;50.084;8.794;2023-11-21T02:41:37;13.60;99.90
9847;DHT22;68671;50.084;8.794;2023-11-21T02:44:05;13.60;99.90
9847;DHT22;68671;50.084;8.794;2023-11-21T02:46:33;13.60;99.90
9847;DHT22;68671;50.084;8.794;2023-11-21T02:49:00;13.60;99.90
9847;DHT22;68671;50.084;8.794;2023-11-21T02:51:27;13.60;99.90
9847;DHT22;68671;50.084;8.794;2023-11-21T02:53:54;13.60;99.90
9847;DHT22;68671;50.084;8.794;2023-11-21T02:56:24;13.50;99.90
9847;DHT22;68671;50.084;8.794;2023-11-21T02:58:52;13.60;99.90
9847;DHT22;68671;50.084;8.794;2023-11-21T03:01:19;13.60;99.90
9847;DHT22;68671;50.084;8.794;2023-11-21T03:03:46;13.60;99.90
9847;DHT22;68671;50.084;8.794;2023-11-21T03:06:16;13.60;99.90
9847;DHT22;68671;50.084;8.794;2023-11-21T03:08:43;13.60;99.90
9847;DHT22;68671;50.084;8.794;2023-11-21T03:11:10;13.60;99.90
9847;DHT22;68671;50.084;8.794;2023-11-21T03:13:38;13.60;99.90
9847;DHT22;68671;50.084;8.794;2023-11-21T03:16:07;13.60;99.90
9847;DHT22;68671;50.084;8.794;2023-11-21T03:18:34;13.60;99.90
9847;DHT22;68671;50.084;8.794;2023-11-21T03:21:01;13.60;99.90
9847;DHT22;68671;50.084;8.794;2023-11-21T03:23:28;13.60;99.90
9847;DHT22;68671;50.084;8.794;2023-11-21T03:25:55;13.60;99.90
9847;DHT22;68671;50.084;8.794;2023-11-21T03:28:23;13.50;99.90
9847;DHT22;68671;50.084;8.794;2023-11-21T03:30:50;13.50;99.90
9847;DHT22;68671;50.084;8.794;2023-11-21T03:33:18;13.50;99.90
9847;DHT22;68671;50.084;8.794;2023-11-21T03:35:45;13.50;99.90
9847;DHT22;68671;50.084;8.794;2023-11-21T03:38:12;13.50;99.90
9847;DHT22;68671;50.084;8.794;2023-11-21T03:40:39;13.50;99.90
9847;DHT22;68671;50.084;8.794;2023-11-21T03:43:08;13.50;99.90
9847;DHT22;68671;50.084;8.794;2023-11-21T03:45:35;13.50;99.90
9847;DHT22;68671;50.084;8.794;2023-11-21T03:48:02;13.50;99.90
9847;DHT22;68671;50.084;8.794;2023-11-21T03:50:31;13.50;99.90
9847;DHT22;68671;50.084;8.794;2023-11-21T03:52:57;13.50;99.90
9847;DHT22;68671;50.084;8.794;2023-11-21T03:55:24;13.60;99.90
9847;DHT22;68671;50.084;8.794;2023-11-21T03:57:50;13.60;99.90
9847;DHT22;68671;50.084;8.794;2023-11-21T04:00:18;13.60;99.90
9847;DHT22;68671;50.084;8.794;2023-11-21T04:02:46;13.60;99.90
9847;DHT22;68671;50.084;8.794;2023-11-21T04:05:13;13.50;99.90
9847;DHT22;68671;50.084;8.794;2023-11-21T04:07:41;13.60;99.90
9847;DHT22;68671;50.084;8.794;2023-11-21T04:10:08;13.60;99.90
9847;DHT22;68671;50.084;8.794;2023-11-21T04:12:38;13.60;99.90
9847;DHT22;68671;50.084;8.794;2023-11-21T04:15:05;13.60;99.90
9847;DHT22;68671;50.084;8.794;2023-11-21T04:17:34;13.50;99.90
9847;DHT22;68671;50.084;8.794;2023-11-21T04:20:02;13.50;99.90
9847;DHT22;68671;50.084;8.794;2023-11-21T04:22:29;13.50;99.90
9847;DHT22;68671;50.084;8.794;2023-11-21T04:24:57;13.50;99.90
9847;DHT22;68671;50.084;8.794;2023-11-21T04:27:24;13.50;99.90
9847;DHT22;68671;50.084;8.794;2023-11-21T04:29:51;13.50;99.90
9847;DHT22;68671;50.084;8.794;2023-11-21T04:32:18;13.50;99.90
9847;DHT22;68671;50.084;8.794;2023-11-21T04:34:45;13.50;99.90
9847;DHT22;68671;50.084;8.794;2023-11-21T04:37:11;13.50;99.90
9847;DHT22;68671;50.084;8.794;2023-11-21T04:39:38;13.50;99.90
9847;DHT22;68671;50.084;8.794;2023-11-21T04:42:07;13.50;99.90
9847;DHT22;68671;50.084;8.794;2023-11-21T04:44:34;13.50;99.90
9847;DHT22;68671;50.084;8.794;2023-11-21T04:47:01;13.50;99.90
9847;DHT22;68671;50.084;8.794;2023-11-21T04:49:30;13.50;99.90
9847;DHT22;68671;50.084;8.794;2023-11-21T04:51:57;13.50;99.90
9847;DHT22;68671;50.084;8.794;2023-11-21T04:54:24;13.50;99.90
9847;DHT22;68671;50.084;8.794;2023-11-21T04:56:51;13.50;99.90
9847;DHT22;68671;50.084;8.794;2023-11-21T04:59:19;13.50;99.90
9847;DHT22;68671;50.084;8.794;2023-11-21T05:01:46;13.50;99.90
9847;DHT22;68671;50.084;8.794;2023-11-21T05:04:13;13.50;99.90
9847;DHT22;68671;50.084;8.794;2023-11-21T05:06:40;13.50;99.90
9847;DHT22;68671;50.084;8.794;2023-11-21T05:09:07;13.50;99.90
9847;DHT22;68671;50.084;8.794;2023-11-21T05:11:37;13.50;99.90
9847;DHT22;68671;50.084;8.794;2023-11-21T05:14:06;13.50;99.90
9847;DHT22;68671;50.084;8.794;2023-11-21T05:16:35;13.50;99.90
9847;DHT22;68671;50.084;8.794;2023-11-21T05:19:03;13.50;99.90
9847;DHT22;68671;50.084;8.794;2023-11-21T05:21:31;13.40;99.90
9847;DHT22;68671;50.084;8.794;2023-11-21T05:23:58;13.40;99.90
9847;DHT22;68671;50.084;8.794;2023-11-21T05:26:24;13.40;99.90
9847;DHT22;68671;50.084;8.794;2023-11-21T05:28:51;13.30;99.90
9847;DHT22;68671;50.084;8.794;2023-11-21T05:31:17;13.30;99.90
9847;DHT22;68671;50.084;8.794;2023-11-21T05:33:46;13.30;99.90
9847;DHT22;68671;50.084;8.794;2023-11-21T05:36:13;13.30;99.90
9847;DHT22;68671;50.084;8.794;2023-11-21T05:38:40;13.30;99.90
9847;DHT22;68671;50.084;8.794;2023-11-21T05:41:08;13.30;99.90
9847;DHT22;68671;50.084;8.794;2023-11-21T05:43:36;13.40;99.90
9847;DHT22;68671;50.084;8.794;2023-11-21T05:46:03;13.40;99.90
9847;DHT22;68671;50.084;8.794;2023-11-21T05:48:31;13.40;99.90
9847;DHT22;68671;50.084;8.794;2023-11-21T05:50:59;13.40;99.90
9847;DHT22;68671;50.084;8.794;2023-11-21T05:53:27;13.40;99.90
9847;DHT22;68671;50.084;8.794;2023-11-21T05:55:54;13.40;99.90
9847;DHT22;68671;50.084;8.794;2023-11-21T05:58:21;13.40;99.90
9847;DHT22;68671;50.084;8.794;2023-11-21T06:00:48;13.40;99.90
9847;DHT22;68671;50.084;8.794;2023-11-21T06:03:15;13.40;99.90
9847;DHT22;68671;50.084;8.794;2023-11-21T06:05:42;13.40;99.90
9847;DHT22;68671;50.084;8.794;2023-11-21T06:08:11;13.40;99.90
9847;DHT22;68671;50.084;8.794;2023-11-21T06:10:38;13.40;99.90
9847;DHT22;68671;50.084;8.794;2023-11-21T06:13:05;13.50;99.90
9847;DHT22;68671;50.084;8.794;2023-11-21T06:15:32;13.40;99.90
9847;DHT22;68671;50.084;8.794;2023-11-21T06:18:00;13.40;99.90
9847;DHT22;68671;50.084;8.794;2023-11-21T06:20:26;13.30;99.90
9847;DHT22;68671;50.084;8.794;2023-11-21T06:22:53;13.30;99.90
9847;DHT22;68671;50.084;8.794;2023-11-21T06:25:22;13.30;99.90
9847;DHT22;68671;50.084;8.794;2023-11-21T06:27:49;13.40;99.90
9847;DHT22;68671;50.084;8.794;2023-11-21T06:30:17;13.30;99.90
9847;DHT22;68671;50.084;8.794;2023-11-21T06:32:45;13.30;99.90
9847;DHT22;68671;50.084;8.794;2023-11-21T06:35:12;13.30;99.90
9847;DHT22;68671;50.084;8.794;2023-11-21T06:37:40;13.30;99.90
9847;DHT22;68671;50.084;8.794;2023-11-21T06:40:12;13.30;99.90
9847;DHT22;68671;50.084;8.794;2023-11-21T06:42:42;13.30;99.90
9847;DHT22;68671;50.084;8.794;2023-11-21T06:45:10;13.30;99.90
9847;DHT22;68671;50.084;8.794;2023-11-21T06:47:37;13.40;99.90
9847;DHT22;68671;50.084;8.794;2023-11-21T06:50:05;13.40;99.90
9847;DHT22;68671;50.084;8.794;2023-11-21T06:52:32;13.40;99.90
9847;DHT22;68671;50.084;8.794;2023-11-21T06:54:59;13.40;99.90
9847;DHT22;68671;50.084;8.794;2023-11-21T06:57:26;13.40;99.90
9847;DHT22;68671;50.084;8.794;2023-11-21T06:59:54;13.40;99.90
9847;DHT22;68671;50.084;8.794;2023-11-21T07:02:23;13.40;99.90
9847;DHT22;68671;50.084;8.794;2023-11-21T07:04:49;13.40;99.90
9847;DHT22;68671;50.084;8.794;2023-11-21T07:07:19;13.50;99.90
9847;DHT22;68671;50.084;8.794;2023-11-21T07:09:49;13.50;99.90
9847;DHT22;68671;50.084;8.794;2023-11-21T07:12:19;13.50;99.90
9847;DHT22;68671;50.084;8.794;2023-11-21T07:14:49;13.50;99.90
9847;DHT22;68671;50.084;8.794;2023-11-21T07:17:17;13.50;99.90
9847;DHT22;68671;50.084;8.794;2023-11-21T07:19:44;13.60;99.90
9847;DHT22;68671;50.084;8.794;2023-11-21T07:22:11;13.50;99.90
9847;DHT22;68671;50.084;8.794;2023-11-21T07:24:43;13.50;99.90
9847;DHT22;68671;50.084;8.794;2023-11-21T07:27:11;13.60;99.90
9847;DHT22;68671;50.084;8.794;2023-11-21T07:29:38;13.60;99.90
9847;DHT22;68671;50.084;8.794;2023-11-21T07:32:05;13.60;99.90
9847;DHT22;68671;50.084;8.794;2023-11-21T07:34:36;13.60;99.90
9847;DHT22;68671;50.084;8.794;2023-11-21T07:37:03;13.60;99.90
9847;DHT22;68671;50.084;8.794;2023-11-21T07:39:30;13.50;99.90
9847;DHT22;68671;50.084;8.794;2023-11-21T07:42:00;13.60;99.90
9847;DHT22;68671;50.084;8.794;2023-11-21T07:44:28;13.60;99.90
9847;DHT22;68671;50.084;8.794;2023-11-21T07:46:54;13.60;99.90
9847;DHT22;68671;50.084;8.794;2023-11-21T07:49:23;13.60;99.90
9847;DHT22;68671;50.084;8.794;2023-11-21T07:51:51;13.60;99.90
9847;DHT22;68671;50.084;8.794;2023-11-21T07:54:18;13.60;99.90
9847;DHT22;68671;50.084;8.794;2023-11-21T07:56:46;13.60;99.90
9847;DHT22;68671;50.084;8.794;2023-11-21T07:59:13;13.60;99.90
9847;DHT22;68671;50.084;8.794;2023-11-21T08:01:40;13.60;99.90
9847;DHT22;68671;50.084;8.794;2023-11-21T08:04:08;13.60;99.90
9847;DHT22;68671;50.084;8.794;2023-11-21T08:06:35;13.70;99.90
9847;DHT22;68671;50.084;8.794;2023-11-21T08:09:04;13.70;99.90
9847;DHT22;68671;50.084;8.794;2023-11-21T08:11:31;13.70;99.90
9847;DHT22;68671;50.084;8.794;2023-11-21T08:13:58;13.80;99.90
9847;DHT22;68671;50.084;8.794;2023-11-21T08:16:25;13.80;99.90
9847;DHT22;68671;50.084;8.794;2023-11-21T08:18:53;13.80;99.90
9847;DHT22;68671;50.084;8.794;2023-11-21T08:21:20;13.80;99.90
9847;DHT22;68671;50.084;8.794;2023-11-21T08:23:49;13.90;99.90
9847;DHT22;68671;50.084;8.794;2023-11-21T08:26:21;13.90;99.90
9847;DHT22;68671;50.084;8.794;2023-11-21T08:28:48;13.90;99.90
9847;DHT22;68671;50.084;8.794;2023-11-21T08:31:15;14.00;99.90
9847;DHT22;68671;50.084;8.794;2023-11-21T08:33:42;13.90;99.90
9847;DHT22;68671;50.084;8.794;2023-11-21T08:36:10;13.90;99.90
9847;DHT22;68671;50.084;8.794;2023-11-21T08:38:37;13.90;99.90
9847;DHT22;68671;50.084;8.794;2023-11-21T08:41:05;14.00;99.90
9847;DHT22;68671;50.084;8.794;2023-11-21T08:43:38;14.00;99.90
9847;DHT22;68671;50.084;8.794;2023-11-21T08:46:05;14.00;99.90
9847;DHT22;68671;50.084;8.794;2023-11-21T08:48:35;14.00;99.90
9847;DHT22;68671;50.084;8.794;2023-11-21T08:51:03;14.00;99.90
9847;DHT22;68671;50.084;8.794;2023-11-21T08:53:30;14.00;99.90
9847;DHT22;68671;50.084;8.794;2023-11-21T08:55:57;14.10;99.90
9847;DHT22;68671;50.084;8.794;2023-11-21T08:58:24;14.10;99.90
9847;DHT22;68671;50.084;8.794;2023-11-21T09:00:52;14.10;99.90
9847;DHT22;68671;50.084;8.794;2023-11-21T09:03:19;14.20;99.90
9847;DHT22;68671;50.084;8.794;2023-11-21T09:05:46;14.20;99.90
9847;DHT22;68671;50.084;8.794;2023-11-21T09:08:14;14.20;99.90
9847;DHT22;68671;50.084;8.794;2023-11-21T09:10:43;14.20;99.90
9847;DHT22;68671;50.084;8.794;2023-11-21T09:13:12;14.30;99.90
9847;DHT22;68671;50.084;8.794;2023-11-21T09:15:42;14.30;99.90
9847;DHT22;68671;50.084;8.794;2023-11-21T09:18:13;14.40;99.90
9847;DHT22;68671;50.084;8.794;2023-11-21T09:20:40;14.40;99.90
9847;DHT22;68671;50.084;8.794;2023-11-21T09:23:10;14.40;99.90
9847;DHT22;68671;50.084;8.794;2023-11-21T09:25:37;14.40;99.90
9847;DHT22;68671;50.084;8.794;2023-11-21T09:28:04;14.50;99.90
9847;DHT22;68671;50.084;8.794;2023-11-21T09:30:33;14.50;99.90
9847;DHT22;68671;50.084;8.794;2023-11-21T09:33:00;14.50;99.90
9847;DHT22;68671;50.084;8.794;2023-11-21T09:35:29;14.60;99.90
9847;DHT22;68671;50.084;8.794;2023-11-21T09:37:55;14.60;99.90
9847;DHT22;68671;50.084;8.794;2023-11-21T09:40:22;14.60;99.90
9847;DHT22;68671;50.084;8.794;2023-11-21T09:42:54;14.60;99.90
9847;DHT22;68671;50.084;8.794;2023-11-21T09:45:25;14.60;99.90
9847;DHT22;68671;50.084;8.794;2023-11-21T09:47:54;14.70;99.90
9847;DHT22;68671;50.084;8.794;2023-11-21T09:50:22;14.70;99.90
9847;DHT22;68671;50.084;8.794;2023-11-21T09:52:55;14.70;99.90
9847;DHT22;68671;50.084;8.794;2023-11-21T09:55:27;14.70;99.90
9847;DHT22;68671;50.084;8.794;2023-11-21T09:57:56;14.70;99.90
9847;DHT22;68671;50.084;8.794;2023-11-21T10:00:23;14.80;99.90
9847;DHT22;68671;50.084;8.794;2023-11-21T10:02:52;14.80;99.90
9847;DHT22;68671;50.084;8.794;2023-11-21T10:05:19;14.70;99.90
9847;DHT22;68671;50.084;8.794;2023-11-21T10:07:50;14.80;99.90
9847;DHT22;68671;50.084;8.794;2023-11-21T10:10:19;14.90;99.90
9847;DHT22;68671;50.084;8.794;2023-11-21T10:12:50;14.80;99.90
9847;DHT22;68671;50.084;8.794;2023-11-21T10:15:21;14.90;99.90
9847;DHT22;68671;50.084;8.794;2023-11-21T10:17:49;15.00;99.90
9847;DHT22;68671;50.084;8.794;2023-11-21T10:20:19;14.90;99.90
9847;DHT22;68671;50.084;8.794;2023-11-21T10:22:46;15.00;99.90
9847;DHT22;68671;50.084;8.794;2023-11-21T10:25:15;15.00;99.90
9847;DHT22;68671;50.084;8.794;2023-11-21T10:27:46;15.00;99.90
9847;DHT22;68671;50.084;8.794;2023-11-21T10:30:16;15.10;99.90
9847;DHT22;68671;50.084;8.794;2023-11-21T10:32:43;15.10;99.90
9847;DHT22;68671;50.084;8.794;2023-11-21T10:35:10;15.10;99.90
9847;DHT22;68671;50.084;8.794;2023-11-21T10:37:38;15.20;99.90
9847;DHT22;68671;50.084;8.794;2023-11-21T10:40:06;15.20;99.90
9847;DHT22;68671;50.084;8.794;2023-11-21T10:42:38;15.20;99.90
9847;DHT22;68671;50.084;8.794;2023-11-21T10:45:06;15.20;99.90
9847;DHT22;68671;50.084;8.794;2023-11-21T10:47:38;15.30;99.90
9847;DHT22;68671;50.084;8.794;2023-11-21T10:50:05;15.30;99.90
9847;DHT22;68671;50.084;8.794;2023-11-21T10:52:36;15.30;99.90
9847;DHT22;68671;50.084;8.794;2023-11-21T10:55:16;15.40;99.90
9847;DHT22;68671;50.084;8.794;2023-11-21T10:57:48;15.40;99.90
9847;DHT22;68671;50.084;8.794;2023-11-21T11:00:16;15.50;99.90
9847;DHT22;68671;50.084;8.794;2023-11-21T11:02:46;15.50;99.90
9847;DHT22;68671;50.084;8.794;2023-11-21T11:05:15;15.60;99.90
9847;DHT22;68671;50.084;8.794;2023-11-21T11:07:44;15.60;99.90
9847;DHT22;68671;50.084;8.794;2023-11-21T11:10:13;15.60;99.90
9847;DHT22;68671;50.084;8.794;2023-11-21T11:12:41;15.60;99.90
9847;DHT22;68671;50.084;8.794;2023-11-21T11:15:10;15.60;99.90
9847;DHT22;68671;50.084;8.794;2023-11-21T11:17:37;15.60;99.90
9847;DHT22;68671;50.084;8.794;2023-11-21T11:20:06;15.60;99.90
9847;DHT22;68671;50.084;8.794;2023-11-21T11:22:38;15.60;99.90
9847;DHT22;68671;50.084;8.794;2023-11-21T11:25:23;15.60;99.90
9847;DHT22;68671;50.084;8.794;2023-11-21T11:27:54;15.50;99.90
9847;DHT22;68671;50.084;8.794;2023-11-21T11:30:38;15.60;99.90
9847;DHT22;68671;50.084;8.794;2023-11-21T11:33:12;15.60;99.90
9847;DHT22;68671;50.084;8.794;2023-11-21T11:35:49;15.60;99.90
9847;DHT22;68671;50.084;8.794;2023-11-21T11:38:21;15.60;99.90
9847;DHT22;68671;50.084;8.794;2023-11-21T11:40:53;15.60;99.90
9847;DHT22;68671;50.084;8.794;2023-11-21T11:43:25;15.60;99.90
9847;DHT22;68671;50.084;8.794;2023-11-21T11:45:55;15.60;99.90
9847;DHT22;68671;50.084;8.794;2023-11-21T11:48:23;15.50;99.90
9847;DHT22;68671;50.084;8.794;2023-11-21T11:51:03;15.60;99.90
9847;DHT22;68671;50.084;8.794;2023-11-21T11:53:35;15.60;99.90
9847;DHT22;68671;50.084;8.794;2023-11-21T11:56:26;15.60;99.90
9847;DHT22;68671;50.084;8.794;2023-11-21T11:58:54;15.60;99.90
9847;DHT22;68671;50.084;8.794;2023-11-21T12:01:24;15.60;99.90
9847;DHT22;68671;50.084;8.794;2023-11-21T12:04:23;15.60;99.90
9847;DHT22;68671;50.084;8.794;2023-11-21T12:06:56;15.60;99.90
9847;DHT22;68671;50.084;8.794;2023-11-21T12:09:26;15.60;99.90
9847;DHT22;68671;50.084;8.794;2023-11-21T12:11:53;15.50;99.90
9847;DHT22;68671;50.084;8.794;2023-11-21T12:14:22;15.50;99.90
9847;DHT22;68671;50.084;8.794;2023-11-21T12:16:51;15.40;99.90
9847;DHT22;68671;50.084;8.794;2023-11-21T12:19:19;15.40;99.90
9847;DHT22;68671;50.084;8.794;2023-11-21T12:21:48;15.30;99.90
9847;DHT22;68671;50.084;8.794;2023-11-21T12:24:15;15.20;99.90
9847;DHT22;68671;50.084;8.794;2023-11-21T12:26:43;15.20;99.90
9847;DHT22;68671;50.084;8.794;2023-11-21T12:29:10;15.20;99.90
9847;DHT22;68671;50.084;8.794;2023-11-21T12:31:38;15.10;99.90
9847;DHT22;68671;50.084;8.794;2023-11-21T12:34:06;14.90;99.90
9847;DHT22;68671;50.084;8.794;2023-11-21T12:36:37;14.80;99.90
9847;DHT22;68671;50.084;8.794;2023-11-21T12:39:04;14.60;99.90
9847;DHT22;68671;50.084;8.794;2023-11-21T12:41:31;14.50;99.90
9847;DHT22;68671;50.084;8.794;2023-11-21T12:43:58;14.50;99.90
9847;DHT22;68671;50.084;8.794;2023-11-21T12:46:25;14.50;99.90
9847;DHT22;68671;50.084;8.794;2023-11-21T12:48:55;14.50;99.90
9847;DHT22;68671;50.084;8.794;2023-11-21T12:51:23;14.50;99.90
9847;DHT22;68671;50.084;8.794;2023-11-21T12:53:52;14.60;99.90
9847;DHT22;68671;50.084;8.794;2023-11-21T12:56:21;14.60;99.90
9847;DHT22;68671;50.084;8.794;2023-11-21T12:58:49;14.50;99.90
9847;DHT22;68671;50.084;8.794;2023-11-21T13:01:17;14.30;99.90
9847;DHT22;68671;50.084;8.794;2023-11-21T13:03:48;14.30;99.90
9847;DHT22;68671;50.084;8.794;2023-11-21T13:06:17;14.20;99.90
9847;DHT22;68671;50.084;8.794;2023-11-21T13:08:46;14.00;99.90
9847;DHT22;68671;50.084;8.794;2023-11-21T13:11:13;14.00;99.90
9847;DHT22;68671;50.084;8.794;2023-11-21T13:13:41;13.80;99.90
9847;DHT22;68671;50.084;8.794;2023-11-21T13:16:09;13.70;99.90
9847;DHT22;68671;50.084;8.794;2023-11-21T13:18:36;13.60;99.90
9847;DHT22;68671;50.084;8.794;2023-11-21T13:21:08;13.40;99.90
9847;DHT22;68671;50.084;8.794;2023-11-21T13:23:39;13.30;99.90
9847;DHT22;68671;50.084;8.794;2023-11-21T13:26:08;13.10;99.90
9847;DHT22;68671;50.084;8.794;2023-11-21T13:28:36;13.10;99.90
9847;DHT22;68671;50.084;8.794;2023-11-21T13:31:04;13.00;99.90
9847;DHT22;68671;50.084;8.794;2023-11-21T13:33:47;12.90;99.90
9847;DHT22;68671;50.084;8.794;2023-11-21T13:36:21;12.90;99.90
9847;DHT22;68671;50.084;8.794;2023-11-21T13:38:49;12.90;99.90
9847;DHT22;68671;50.084;8.794;2023-11-21T13:41:19;12.70;99.90
9847;DHT22;68671;50.084;8.794;2023-11-21T13:43:53;12.70;99.90
9847;DHT22;68671;50.084;8.794;2023-11-21T13:46:29;12.70;99.90
9847;DHT22;68671;50.084;8.794;2023-11-21T13:49:02;12.70;99.90
9847;DHT22;68671;50.084;8.794;2023-11-21T13:51:31;12.70;99.90
9847;DHT22;68671;50.084;8.794;2023-11-21T13:54:04;12.70;99.90
9847;DHT22;68671;50.084;8.794;2023-11-21T13:56:36;12.70;99.90
9847;DHT22;68671;50.084;8.794;2023-11-21T13:59:04;12.70;99.90
9847;DHT22;68671;50.084;8.794;2023-11-21T14:01:39;12.70;99.90
9847;DHT22;68671;50.084;8.794;2023-11-21T14:04:20;12.60;99.90
9847;DHT22;68671;50.084;8.794;2023-11-21T14:07:01;12.60;99.90
9847;DHT22;68671;50.084;8.794;2023-11-21T14:09:46;12.60;99.90
9847;DHT22;68671;50.084;8.794;2023-11-21T14:12:16;12.60;99.90
9847;DHT22;68671;50.084;8.794;2023-11-21T14:14:44;12.50;99.90
9847;DHT22;68671;50.084;8.794;2023-11-21T14:17:13;12.60;99.90
9847;DHT22;68671;50.084;8.794;2023-11-21T14:19:38;12.50;99.90
9847;DHT22;68671;50.084;8.794;2023-11-21T14:22:09;12.40;99.90
9847;DHT22;68671;50.084;8.794;2023-11-21T14:24:36;12.40;99.90
9847;DHT22;68671;50.084;8.794;2023-11-21T14:27:07;12.40;99.90
9847;DHT22;68671;50.084;8.794;2023-11-21T14:29:35;12.50;99.90
9847;DHT22;68671;50.084;8.794;2023-11-21T14:32:05;12.50;99.90
9847;DHT22;68671;50.084;8.794;2023-11-21T14:34:32;12.50;99.90
9847;DHT22;68671;50.084;8.794;2023-11-21T14:36:59;12.40;99.90
9847;DHT22;68671;50.084;8.794;2023-11-21T14:39:28;12.30;99.90
9847;DHT22;68671;50.084;8.794;2023-11-21T14:41:56;12.30;99.90
9847;DHT22;68671;50.084;8.794;2023-11-21T14:44:24;12.20;99.90
9847;DHT22;68671;50.084;8.794;2023-11-21T14:46:56;12.20;99.90
9847;DHT22;68671;50.084;8.794;2023-11-21T14:49:23;12.10;99.90
9847;DHT22;68671;50.084;8.794;2023-11-21T14:51:53;12.10;99.90
9847;DHT22;68671;50.084;8.794;2023-11-21T14:54:27;12.00;99.90
9847;DHT22;68671;50.084;8.794;2023-11-21T14:57:09;12.10;99.90
9847;DHT22;68671;50.084;8.794;2023-11-21T14:59:42;12.10;99.90
9847;DHT22;68671;50.084;8.794;2023-11-21T15:02:11;12.10;99.90
9847;DHT22;68671;50.084;8.794;2023-11-21T15:04:41;12.00;99.90
9847;DHT22;68671;50.084;8.794;2023-11-21T15:07:09;12.00;99.90
9847;DHT22;68671;50.084;8.794;2023-11-21T15:09:37;12.00;99.90
9847;DHT22;68671;50.084;8.794;2023-11-21T15:12:09;12.00;99.90
9847;DHT22;68671;50.084;8.794;2023-11-21T15:14:47;12.00;99.90
9847;DHT22;68671;50.084;8.794;2023-11-21T15:17:19;12.00;99.90
9847;DHT22;68671;50.084;8.794;2023-11-21T15:19:51;12.00;99.90
9847;DHT22;68671;50.084;8.794;2023-11-21T15:22:18;11.90;99.90
9847;DHT22;68671;50.084;8.794;2023-11-21T15:24:45;11.80;99.90
9847;DHT22;68671;50.084;8.794;2023-11-21T15:27:15;11.80;99.90
9847;DHT22;68671;50.084;8.794;2023-11-21T15:29:42;11.80;99.90
9847;DHT22;68671;50.084;8.794;2023-11-21T15:32:10;11.70;99.90
9847;DHT22;68671;50.084;8.794;2023-11-21T15:34:39;11.70;99.90
9847;DHT22;68671;50.084;8.794;2023-11-21T15:37:08;11.60;99.90
9847;DHT22;68671;50.084;8.794;2023-11-21T15:39:37;11.70;99.90
9847;DHT22;68671;50.084;8.794;2023-11-21T15:42:04;11.60;99.90
9847;DHT22;68671;50.084;8.794;2023-11-21T15:44:33;11.60;99.90
9847;DHT22;68671;50.084;8.794;2023-11-21T15:47:00;11.50;99.90
9847;DHT22;68671;50.084;8.794;2023-11-21T15:49:29;11.40;99.90
9847;DHT22;68671;50.084;8.794;2023-11-21T15:52:01;11.30;99.90
9847;DHT22;68671;50.084;8.794;2023-11-21T15:54:28;11.30;99.90